sensor_id;sensor_type;location;lat;lon;timestamp;pressure;altitude;pressure_sealevel;temperature
61390;BMP280;47260;48.274;19.814;2022-11-03T00:01:58;100050.56;;;7.27
61390;BMP280;47260;48.274;19.814;2022-11-03T00:04:25;100058.13;;;7.29
61390;BMP280;47260;48.274;19.814;2022-11-03T00:06:52;100053.53;;;7.29
61390;BMP280;47260;48.274;19.814;2022-11-03T00:09:19;100058.13;;;7.29
61390;BMP280;47260;48.274;19.814;2022-11-03T00:11:46;100058.75;;;7.33
61390;BMP280;47260;48.274;19.814;2022-11-03T00:14:14;100069.69;;;7.44
61390;BMP280;47260;48.274;19.814;2022-11-03T00:16:40;100071.19;;;7.45
61390;BMP280;47260;48.274;19.814;2022-11-03T00:19:07;100070.91;;;7.43
61390;BMP280;47260;48.274;19.814;2022-11-03T00:21:34;100071.03;;;7.40
61390;BMP280;47260;48.274;19.814;2022-11-03T00:24:00;100082.78;;;7.33
61390;BMP280;47260;48.274;19.814;2022-11-03T00:26:28;100070.91;;;7.07
61390;BMP280;47260;48.274;19.814;2022-11-03T00:28:55;100074.78;;;6.88
61390;BMP280;47260;48.274;19.814;2022-11-03T00:31:24;100078.34;;;6.85
61390;BMP280;47260;48.274;19.814;2022-11-03T00:33:51;100077.47;;;6.88
61390;BMP280;47260;48.274;19.814;2022-11-03T00:36:18;100084.72;;;6.78
61390;BMP280;47260;48.274;19.814;2022-11-03T00:38:44;100076.66;;;6.69
61390;BMP280;47260;48.274;19.814;2022-11-03T00:41:11;100067.34;;;6.65
61390;BMP280;47260;48.274;19.814;2022-11-03T00:43:38;100075.16;;;6.50
61390;BMP280;47260;48.274;19.814;2022-11-03T00:46:05;100076.34;;;6.49
61390;BMP280;47260;48.274;19.814;2022-11-03T00:48:33;100072.91;;;6.48
61390;BMP280;47260;48.274;19.814;2022-11-03T00:51:00;100079.59;;;6.53
61390;BMP280;47260;48.274;19.814;2022-11-03T00:53:27;100076.03;;;6.56
61390;BMP280;47260;48.274;19.814;2022-11-03T00:55:54;100070.28;;;6.58
61390;BMP280;47260;48.274;19.814;2022-11-03T00:58:20;100079.91;;;6.55
61390;BMP280;47260;48.274;19.814;2022-11-03T01:00:47;100076.50;;;6.55
61390;BMP280;47260;48.274;19.814;2022-11-03T01:03:13;100084.66;;;6.60
61390;BMP280;47260;48.274;19.814;2022-11-03T01:05:41;100079.75;;;6.59
61390;BMP280;47260;48.274;19.814;2022-11-03T01:08:30;100071.75;;;6.59
61390;BMP280;47260;48.274;19.814;2022-11-03T01:11:02;100068.94;;;6.53
61390;BMP280;47260;48.274;19.814;2022-11-03T01:13:46;100067.16;;;6.59
61390;BMP280;47260;48.274;19.814;2022-11-03T01:16:13;100064.50;;;6.50
61390;BMP280;47260;48.274;19.814;2022-11-03T01:18:39;100064.91;;;6.39
61390;BMP280;47260;48.274;19.814;2022-11-03T01:21:07;100065.03;;;6.36
61390;BMP280;47260;48.274;19.814;2022-11-03T01:23:34;100065.00;;;6.18
61390;BMP280;47260;48.274;19.814;2022-11-03T01:26:02;100061.28;;;6.15
61390;BMP280;47260;48.274;19.814;2022-11-03T01:28:29;100061.22;;;6.06
61390;BMP280;47260;48.274;19.814;2022-11-03T01:30:55;100060.81;;;6.08
61390;BMP280;47260;48.274;19.814;2022-11-03T01:33:21;100078.41;;;6.05
61390;BMP280;47260;48.274;19.814;2022-11-03T01:35:51;100073.25;;;6.11
61390;BMP280;47260;48.274;19.814;2022-11-03T01:38:19;100085.22;;;6.06
61390;BMP280;47260;48.274;19.814;2022-11-03T01:40:45;100082.13;;;6.08
61390;BMP280;47260;48.274;19.814;2022-11-03T01:43:15;100085.72;;;5.83
61390;BMP280;47260;48.274;19.814;2022-11-03T01:45:42;100089.91;;;5.72
61390;BMP280;47260;48.274;19.814;2022-11-03T01:48:08;100095.84;;;5.54
61390;BMP280;47260;48.274;19.814;2022-11-03T01:50:36;100095.06;;;5.44
61390;BMP280;47260;48.274;19.814;2022-11-03T01:53:03;100088.25;;;5.43
61390;BMP280;47260;48.274;19.814;2022-11-03T01:55:32;100082.38;;;5.48
61390;BMP280;47260;48.274;19.814;2022-11-03T01:58:01;100083.50;;;5.60
61390;BMP280;47260;48.274;19.814;2022-11-03T02:00:29;100088.28;;;5.65
61390;BMP280;47260;48.274;19.814;2022-11-03T02:02:56;100081.38;;;5.77
61390;BMP280;47260;48.274;19.814;2022-11-03T02:05:22;100076.19;;;5.73
61390;BMP280;47260;48.274;19.814;2022-11-03T02:07:51;100077.94;;;5.76
61390;BMP280;47260;48.274;19.814;2022-11-03T02:10:19;100078.44;;;5.84
61390;BMP280;47260;48.274;19.814;2022-11-03T02:12:47;100084.41;;;5.88
61390;BMP280;47260;48.274;19.814;2022-11-03T02:15:14;100078.31;;;5.87
61390;BMP280;47260;48.274;19.814;2022-11-03T02:17:41;100086.00;;;5.85
61390;BMP280;47260;48.274;19.814;2022-11-03T02:20:08;100088.66;;;5.85
61390;BMP280;47260;48.274;19.814;2022-11-03T02:25:32;100087.88;;;6.06
61390;BMP280;47260;48.274;19.814;2022-11-03T02:27:59;100095.38;;;6.20
61390;BMP280;47260;48.274;19.814;2022-11-03T02:30:25;100096.84;;;6.21
61390;BMP280;47260;48.274;19.814;2022-11-03T02:32:56;100098.03;;;6.20
61390;BMP280;47260;48.274;19.814;2022-11-03T02:35:25;100100.69;;;6.20
61390;BMP280;47260;48.274;19.814;2022-11-03T02:37:55;100098.34;;;6.22
61390;BMP280;47260;48.274;19.814;2022-11-03T02:40:24;100095.38;;;6.29
61390;BMP280;47260;48.274;19.814;2022-11-03T02:42:54;100108.50;;;6.15
61390;BMP280;47260;48.274;19.814;2022-11-03T02:45:21;100096.50;;;6.10
61390;BMP280;47260;48.274;19.814;2022-11-03T02:47:49;100100.56;;;6.24
61390;BMP280;47260;48.274;19.814;2022-11-03T02:50:17;100099.09;;;6.32
61390;BMP280;47260;48.274;19.814;2022-11-03T02:52:44;100103.41;;;6.38
61390;BMP280;47260;48.274;19.814;2022-11-03T02:55:13;100103.47;;;6.47
61390;BMP280;47260;48.274;19.814;2022-11-03T02:57:42;100093.72;;;6.63
61390;BMP280;47260;48.274;19.814;2022-11-03T03:00:12;100102.34;;;6.76
61390;BMP280;47260;48.274;19.814;2022-11-03T03:02:39;100090.75;;;6.79
61390;BMP280;47260;48.274;19.814;2022-11-03T03:05:07;100100.28;;;6.89
61390;BMP280;47260;48.274;19.814;2022-11-03T03:07:37;100096.72;;;6.92
61390;BMP280;47260;48.274;19.814;2022-11-03T03:10:06;100095.56;;;7.02
61390;BMP280;47260;48.274;19.814;2022-11-03T03:12:34;100105.63;;;7.07
61390;BMP280;47260;48.274;19.814;2022-11-03T03:15:02;100097.91;;;7.09
61390;BMP280;47260;48.274;19.814;2022-11-03T03:17:31;100097.78;;;7.12
61390;BMP280;47260;48.274;19.814;2022-11-03T03:20:00;100095.41;;;7.14
61390;BMP280;47260;48.274;19.814;2022-11-03T03:22:30;100098.81;;;7.15
61390;BMP280;47260;48.274;19.814;2022-11-03T03:24:59;100097.03;;;7.12
61390;BMP280;47260;48.274;19.814;2022-11-03T03:27:26;100096.44;;;6.99
61390;BMP280;47260;48.274;19.814;2022-11-03T03:29:55;100091.97;;;6.96
61390;BMP280;47260;48.274;19.814;2022-11-03T03:32:23;100097.47;;;7.01
61390;BMP280;47260;48.274;19.814;2022-11-03T03:34:52;100094.06;;;7.10
61390;BMP280;47260;48.274;19.814;2022-11-03T03:37:20;100107.13;;;7.08
61390;BMP280;47260;48.274;19.814;2022-11-03T03:39:49;100102.97;;;7.07
61390;BMP280;47260;48.274;19.814;2022-11-03T03:42:17;100112.75;;;7.01
61390;BMP280;47260;48.274;19.814;2022-11-03T03:44:45;100105.06;;;7.03
61390;BMP280;47260;48.274;19.814;2022-11-03T03:47:13;100110.50;;;7.08
61390;BMP280;47260;48.274;19.814;2022-11-03T03:49:40;100106.66;;;7.18
61390;BMP280;47260;48.274;19.814;2022-11-03T03:52:08;100106.53;;;7.22
61390;BMP280;47260;48.274;19.814;2022-11-03T03:54:35;100113.03;;;7.21
61390;BMP280;47260;48.274;19.814;2022-11-03T03:57:02;100119.28;;;7.09
61390;BMP280;47260;48.274;19.814;2022-11-03T03:59:29;100119.59;;;7.02
61390;BMP280;47260;48.274;19.814;2022-11-03T04:01:55;100110.97;;;7.07
61390;BMP280;47260;48.274;19.814;2022-11-03T04:04:22;100113.06;;;7.12
61390;BMP280;47260;48.274;19.814;2022-11-03T04:06:48;100117.34;;;7.18
61390;BMP280;47260;48.274;19.814;2022-11-03T04:09:36;100120.94;;;7.24
61390;BMP280;47260;48.274;19.814;2022-11-03T04:12:03;100125.53;;;7.33
61390;BMP280;47260;48.274;19.814;2022-11-03T04:14:47;100125.50;;;7.42
61390;BMP280;47260;48.274;19.814;2022-11-03T04:17:31;100135.91;;;7.49
61390;BMP280;47260;48.274;19.814;2022-11-03T04:20:15;100135.00;;;7.52
61390;BMP280;47260;48.274;19.814;2022-11-03T04:22:58;100135.28;;;7.54
61390;BMP280;47260;48.274;19.814;2022-11-03T04:25:26;100131.88;;;7.54
61390;BMP280;47260;48.274;19.814;2022-11-03T04:27:53;100130.56;;;7.40
61390;BMP280;47260;48.274;19.814;2022-11-03T04:30:20;100130.97;;;7.39
61390;BMP280;47260;48.274;19.814;2022-11-03T04:32:49;100121.22;;;7.17
61390;BMP280;47260;48.274;19.814;2022-11-03T04:35:17;100115.00;;;7.02
61390;BMP280;47260;48.274;19.814;2022-11-03T04:37:44;100115.13;;;6.99
61390;BMP280;47260;48.274;19.814;2022-11-03T04:40:14;100128.63;;;7.13
61390;BMP280;47260;48.274;19.814;2022-11-03T04:42:43;100124.63;;;7.18
61390;BMP280;47260;48.274;19.814;2022-11-03T04:45:14;100121.97;;;7.18
61390;BMP280;47260;48.274;19.814;2022-11-03T04:47:42;100124.78;;;7.23
61390;BMP280;47260;48.274;19.814;2022-11-03T04:50:10;100120.34;;;7.20
61390;BMP280;47260;48.274;19.814;2022-11-03T04:52:40;100128.19;;;7.24
61390;BMP280;47260;48.274;19.814;2022-11-03T04:55:08;100121.34;;;7.32
61390;BMP280;47260;48.274;19.814;2022-11-03T04:57:35;100123.16;;;7.35
61390;BMP280;47260;48.274;19.814;2022-11-03T05:00:03;100116.19;;;7.38
61390;BMP280;47260;48.274;19.814;2022-11-03T05:02:30;100128.94;;;7.43
61390;BMP280;47260;48.274;19.814;2022-11-03T05:04:57;100130.41;;;7.53
61390;BMP280;47260;48.274;19.814;2022-11-03T05:07:27;100126.81;;;7.65
61390;BMP280;47260;48.274;19.814;2022-11-03T05:09:54;100131.28;;;7.68
61390;BMP280;47260;48.274;19.814;2022-11-03T05:12:20;100132.78;;;7.42
61390;BMP280;47260;48.274;19.814;2022-11-03T05:14:47;100131.28;;;7.32
61390;BMP280;47260;48.274;19.814;2022-11-03T05:17:17;100129.53;;;7.38
61390;BMP280;47260;48.274;19.814;2022-11-03T05:19:45;100128.63;;;7.32
61390;BMP280;47260;48.274;19.814;2022-11-03T05:22:13;100129.81;;;7.40
61390;BMP280;47260;48.274;19.814;2022-11-03T05:24:40;100139.44;;;7.46
61390;BMP280;47260;48.274;19.814;2022-11-03T05:27:08;100136.16;;;7.51
61390;BMP280;47260;48.274;19.814;2022-11-03T05:29:39;100135.59;;;7.56
61390;BMP280;47260;48.274;19.814;2022-11-03T05:32:09;100138.56;;;7.58
61390;BMP280;47260;48.274;19.814;2022-11-03T05:34:39;100141.53;;;7.60
61390;BMP280;47260;48.274;19.814;2022-11-03T05:37:11;100144.47;;;7.62
61390;BMP280;47260;48.274;19.814;2022-11-03T05:39:39;100143.91;;;7.58
61390;BMP280;47260;48.274;19.814;2022-11-03T05:42:14;100149.06;;;7.62
61390;BMP280;47260;48.274;19.814;2022-11-03T05:44:44;100148.16;;;7.74
61390;BMP280;47260;48.274;19.814;2022-11-03T05:47:11;100145.78;;;7.76
61390;BMP280;47260;48.274;19.814;2022-11-03T05:49:40;100146.81;;;7.78
61390;BMP280;47260;48.274;19.814;2022-11-03T05:52:08;100149.50;;;7.87
61390;BMP280;47260;48.274;19.814;2022-11-03T05:54:38;100142.50;;;7.90
61390;BMP280;47260;48.274;19.814;2022-11-03T05:57:06;100146.97;;;7.93
61390;BMP280;47260;48.274;19.814;2022-11-03T05:59:33;100150.50;;;7.99
61390;BMP280;47260;48.274;19.814;2022-11-03T06:02:00;100155.50;;;8.06
61390;BMP280;47260;48.274;19.814;2022-11-03T06:04:27;100157.00;;;8.07
61390;BMP280;47260;48.274;19.814;2022-11-03T06:06:57;100158.16;;;8.15
61390;BMP280;47260;48.274;19.814;2022-11-03T06:09:25;100160.84;;;8.15
61390;BMP280;47260;48.274;19.814;2022-11-03T06:11:53;100164.44;;;8.12
61390;BMP280;47260;48.274;19.814;2022-11-03T06:14:21;100162.66;;;8.09
61390;BMP280;47260;48.274;19.814;2022-11-03T06:16:48;100164.16;;;8.10
61390;BMP280;47260;48.274;19.814;2022-11-03T06:19:19;100168.59;;;8.13
61390;BMP280;47260;48.274;19.814;2022-11-03T06:21:46;100178.97;;;8.11
61390;BMP280;47260;48.274;19.814;2022-11-03T06:24:15;100175.78;;;7.98
61390;BMP280;47260;48.274;19.814;2022-11-03T06:26:43;100177.38;;;8.04
61390;BMP280;47260;48.274;19.814;2022-11-03T06:29:11;100176.47;;;8.07
61390;BMP280;47260;48.274;19.814;2022-11-03T06:31:38;100186.44;;;8.07
61390;BMP280;47260;48.274;19.814;2022-11-03T06:34:07;100185.38;;;8.04
61390;BMP280;47260;48.274;19.814;2022-11-03T06:36:37;100186.13;;;8.05
61390;BMP280;47260;48.274;19.814;2022-11-03T06:39:07;100202.75;;;8.09
61390;BMP280;47260;48.274;19.814;2022-11-03T06:41:36;100196.38;;;8.16
61390;BMP280;47260;48.274;19.814;2022-11-03T06:44:15;100197.00;;;8.10
61390;BMP280;47260;48.274;19.814;2022-11-03T06:46:44;100208.41;;;8.20
61390;BMP280;47260;48.274;19.814;2022-11-03T06:49:20;100203.38;;;8.13
61390;BMP280;47260;48.274;19.814;2022-11-03T06:51:48;100199.63;;;8.20
61390;BMP280;47260;48.274;19.814;2022-11-03T06:54:14;100199.91;;;8.22
61390;BMP280;47260;48.274;19.814;2022-11-03T06:56:42;100206.47;;;8.21
61390;BMP280;47260;48.274;19.814;2022-11-03T06:59:09;100208.53;;;8.17
61390;BMP280;47260;48.274;19.814;2022-11-03T07:01:39;100205.00;;;8.10
61390;BMP280;47260;48.274;19.814;2022-11-03T07:04:10;100202.44;;;8.16
61390;BMP280;47260;48.274;19.814;2022-11-03T07:06:38;100207.66;;;8.20
61390;BMP280;47260;48.274;19.814;2022-11-03T07:09:05;100205.53;;;8.33
61390;BMP280;47260;48.274;19.814;2022-11-03T07:11:34;100203.41;;;8.46
61390;BMP280;47260;48.274;19.814;2022-11-03T07:14:05;100201.03;;;8.39
61390;BMP280;47260;48.274;19.814;2022-11-03T07:16:35;100209.00;;;8.57
61390;BMP280;47260;48.274;19.814;2022-11-03T07:19:02;100206.94;;;8.52
61390;BMP280;47260;48.274;19.814;2022-11-03T07:21:32;100205.66;;;8.71
61390;BMP280;47260;48.274;19.814;2022-11-03T07:23:59;100215.78;;;8.67
61390;BMP280;47260;48.274;19.814;2022-11-03T07:26:26;100206.50;;;8.77
61390;BMP280;47260;48.274;19.814;2022-11-03T07:28:53;100202.94;;;8.80
61390;BMP280;47260;48.274;19.814;2022-11-03T07:31:22;100206.19;;;8.84
61390;BMP280;47260;48.274;19.814;2022-11-03T07:33:50;100206.25;;;8.66
61390;BMP280;47260;48.274;19.814;2022-11-03T07:36:21;100199.38;;;8.83
61390;BMP280;47260;48.274;19.814;2022-11-03T07:38:48;100201.69;;;8.90
61390;BMP280;47260;48.274;19.814;2022-11-03T07:41:17;100201.13;;;9.10
61390;BMP280;47260;48.274;19.814;2022-11-03T07:43:45;100193.94;;;9.16
61390;BMP280;47260;48.274;19.814;2022-11-03T07:46:17;100194.78;;;9.22
61390;BMP280;47260;48.274;19.814;2022-11-03T07:48:46;100191.84;;;9.34
61390;BMP280;47260;48.274;19.814;2022-11-03T07:51:14;100187.78;;;9.53
61390;BMP280;47260;48.274;19.814;2022-11-03T07:53:42;100184.75;;;9.46
61390;BMP280;47260;48.274;19.814;2022-11-03T07:56:12;100182.81;;;9.46
61390;BMP280;47260;48.274;19.814;2022-11-03T07:58:40;100183.47;;;9.56
61390;BMP280;47260;48.274;19.814;2022-11-03T08:01:14;100183.69;;;9.67
61390;BMP280;47260;48.274;19.814;2022-11-03T08:03:43;100174.16;;;9.80
61390;BMP280;47260;48.274;19.814;2022-11-03T08:06:11;100175.25;;;9.88
61390;BMP280;47260;48.274;19.814;2022-11-03T08:08:37;100174.41;;;9.97
61390;BMP280;47260;48.274;19.814;2022-11-03T08:11:05;100174.25;;;10.01
61390;BMP280;47260;48.274;19.814;2022-11-03T08:13:31;100174.06;;;9.89
61390;BMP280;47260;48.274;19.814;2022-11-03T08:15:58;100167.09;;;9.98
61390;BMP280;47260;48.274;19.814;2022-11-03T08:18:24;100160.25;;;9.97
61390;BMP280;47260;48.274;19.814;2022-11-03T08:20:51;100162.81;;;10.20
61390;BMP280;47260;48.274;19.814;2022-11-03T08:23:19;100161.16;;;10.23
61390;BMP280;47260;48.274;19.814;2022-11-03T08:25:45;100165.59;;;10.11
61390;BMP280;47260;48.274;19.814;2022-11-03T08:28:12;100154.13;;;10.25
61390;BMP280;47260;48.274;19.814;2022-11-03T08:30:38;100163.31;;;10.39
61390;BMP280;47260;48.274;19.814;2022-11-03T08:33:05;100159.31;;;10.49
61390;BMP280;47260;48.274;19.814;2022-11-03T08:35:31;100156.03;;;10.79
61390;BMP280;47260;48.274;19.814;2022-11-03T08:37:58;100163.06;;;10.77
61390;BMP280;47260;48.274;19.814;2022-11-03T08:40:26;100158.78;;;10.65
61390;BMP280;47260;48.274;19.814;2022-11-03T08:42:52;100154.88;;;10.66
61390;BMP280;47260;48.274;19.814;2022-11-03T08:45:19;100151.81;;;10.73
61390;BMP280;47260;48.274;19.814;2022-11-03T08:47:45;100134.00;;;10.96
61390;BMP280;47260;48.274;19.814;2022-11-03T08:50:12;100141.44;;;10.86
61390;BMP280;47260;48.274;19.814;2022-11-03T08:52:38;100136.06;;;10.86
61390;BMP280;47260;48.274;19.814;2022-11-03T08:55:05;100145.47;;;10.76
61390;BMP280;47260;48.274;19.814;2022-11-03T08:57:33;100132.88;;;10.82
61390;BMP280;47260;48.274;19.814;2022-11-03T08:59:59;100136.06;;;10.86
61390;BMP280;47260;48.274;19.814;2022-11-03T09:02:26;100136.22;;;10.97
61390;BMP280;47260;48.274;19.814;2022-11-03T09:04:52;100135.25;;;11.20
61390;BMP280;47260;48.274;19.814;2022-11-03T09:07:18;100128.78;;;11.38
61390;BMP280;47260;48.274;19.814;2022-11-03T09:09:45;100135.03;;;11.29
61390;BMP280;47260;48.274;19.814;2022-11-03T09:12:12;100135.16;;;11.40
61390;BMP280;47260;48.274;19.814;2022-11-03T09:14:39;100132.25;;;11.18
61390;BMP280;47260;48.274;19.814;2022-11-03T09:17:06;100141.03;;;11.13
61390;BMP280;47260;48.274;19.814;2022-11-03T09:19:32;100130.78;;;11.17
61390;BMP280;47260;48.274;19.814;2022-11-03T09:21:59;100136.06;;;11.06
61390;BMP280;47260;48.274;19.814;2022-11-03T09:24:25;100132.88;;;11.08
61390;BMP280;47260;48.274;19.814;2022-11-03T09:26:52;100139.44;;;11.27
61390;BMP280;47260;48.274;19.814;2022-11-03T09:29:18;100137.53;;;11.33
61390;BMP280;47260;48.274;19.814;2022-11-03T09:31:49;100131.06;;;11.19
61390;BMP280;47260;48.274;19.814;2022-11-03T09:34:16;100132.13;;;11.27
61390;BMP280;47260;48.274;19.814;2022-11-03T09:36:42;100135.50;;;11.53
61390;BMP280;47260;48.274;19.814;2022-11-03T09:39:09;100132.47;;;11.40
61390;BMP280;47260;48.274;19.814;2022-11-03T09:41:36;100130.69;;;11.94
61390;BMP280;47260;48.274;19.814;2022-11-03T09:44:02;100119.34;;;11.48
61390;BMP280;47260;48.274;19.814;2022-11-03T09:46:29;100126.97;;;11.55
61390;BMP280;47260;48.274;19.814;2022-11-03T09:48:57;100126.03;;;11.58
61390;BMP280;47260;48.274;19.814;2022-11-03T09:51:24;100125.66;;;11.70
61390;BMP280;47260;48.274;19.814;2022-11-03T09:53:51;100120.16;;;11.59
61390;BMP280;47260;48.274;19.814;2022-11-03T09:56:18;100126.75;;;11.58
61390;BMP280;47260;48.274;19.814;2022-11-03T09:58:46;100121.94;;;11.68
61390;BMP280;47260;48.274;19.814;2022-11-03T10:01:13;100119.66;;;11.92
61390;BMP280;47260;48.274;19.814;2022-11-03T10:03:39;100109.31;;;11.79
61390;BMP280;47260;48.274;19.814;2022-11-03T10:06:07;100112.44;;;11.72
61390;BMP280;47260;48.274;19.814;2022-11-03T10:08:34;100105.22;;;11.90
61390;BMP280;47260;48.274;19.814;2022-11-03T10:11:02;100103.19;;;11.79
61390;BMP280;47260;48.274;19.814;2022-11-03T10:13:32;100102.16;;;12.08
61390;BMP280;47260;48.274;19.814;2022-11-03T10:15:59;100103.81;;;12.00
61390;BMP280;47260;48.274;19.814;2022-11-03T10:18:26;100095.66;;;11.89
61390;BMP280;47260;48.274;19.814;2022-11-03T10:20:53;100085.22;;;12.02
61390;BMP280;47260;48.274;19.814;2022-11-03T10:23:21;100083.22;;;11.97
61390;BMP280;47260;48.274;19.814;2022-11-03T10:25:47;100078.78;;;11.88
61390;BMP280;47260;48.274;19.814;2022-11-03T10:28:15;100088.09;;;11.87
61390;BMP280;47260;48.274;19.814;2022-11-03T10:30:49;100078.16;;;12.10
61390;BMP280;47260;48.274;19.814;2022-11-03T10:33:26;100073.72;;;12.01
61390;BMP280;47260;48.274;19.814;2022-11-03T10:35:56;100067.50;;;12.32
61390;BMP280;47260;48.274;19.814;2022-11-03T10:38:25;100062.63;;;12.36
61390;BMP280;47260;48.274;19.814;2022-11-03T10:40:52;100064.19;;;12.70
61390;BMP280;47260;48.274;19.814;2022-11-03T10:43:19;100057.00;;;12.39
61390;BMP280;47260;48.274;19.814;2022-11-03T10:45:45;100052.63;;;12.58
61390;BMP280;47260;48.274;19.814;2022-11-03T10:48:13;100050.38;;;12.35
61390;BMP280;47260;48.274;19.814;2022-11-03T10:50:40;100049.41;;;12.38
61390;BMP280;47260;48.274;19.814;2022-11-03T10:53:08;100044.59;;;12.75
61390;BMP280;47260;48.274;19.814;2022-11-03T10:55:42;100044.81;;;12.60
61390;BMP280;47260;48.274;19.814;2022-11-03T10:58:08;100041.38;;;12.54
61390;BMP280;47260;48.274;19.814;2022-11-03T11:00:35;100035.03;;;12.91
61390;BMP280;47260;48.274;19.814;2022-11-03T11:03:02;100026.16;;;12.46
61390;BMP280;47260;48.274;19.814;2022-11-03T11:05:28;100016.88;;;12.58
61390;BMP280;47260;48.274;19.814;2022-11-03T11:07:55;100012.25;;;12.86
61390;BMP280;47260;48.274;19.814;2022-11-03T11:10:22;100010.06;;;12.62
61390;BMP280;47260;48.274;19.814;2022-11-03T11:13:03;100005.91;;;12.89
61390;BMP280;47260;48.274;19.814;2022-11-03T11:15:34;99994.59;;;12.91
61390;BMP280;47260;48.274;19.814;2022-11-03T11:18:01;99989.22;;;12.91
61390;BMP280;47260;48.274;19.814;2022-11-03T11:20:32;99990.47;;;12.95
61390;BMP280;47260;48.274;19.814;2022-11-03T11:28:40;99977.94;;;13.20
61390;BMP280;47260;48.274;19.814;2022-11-03T11:36:33;99959.31;;;13.16
61390;BMP280;47260;48.274;19.814;2022-11-03T11:39:00;99956.38;;;13.14
61390;BMP280;47260;48.274;19.814;2022-11-03T11:46:58;99937.00;;;13.27
61390;BMP280;47260;48.274;19.814;2022-11-03T11:49:25;99933.31;;;13.35
61390;BMP280;47260;48.274;19.814;2022-11-03T11:51:51;99932.78;;;13.31
61390;BMP280;47260;48.274;19.814;2022-11-03T11:54:18;99927.16;;;13.40
61390;BMP280;47260;48.274;19.814;2022-11-03T11:56:46;99927.16;;;13.40
61390;BMP280;47260;48.274;19.814;2022-11-03T11:59:14;99910.47;;;13.31
61390;BMP280;47260;48.274;19.814;2022-11-03T12:01:41;99904.53;;;13.49
61390;BMP280;47260;48.274;19.814;2022-11-03T12:04:15;99906.50;;;13.48
61390;BMP280;47260;48.274;19.814;2022-11-03T12:06:42;99908.97;;;13.46
61390;BMP280;47260;48.274;19.814;2022-11-03T12:09:14;99903.81;;;13.48
61390;BMP280;47260;48.274;19.814;2022-11-03T12:11:41;99885.44;;;13.47
61390;BMP280;47260;48.274;19.814;2022-11-03T12:14:19;99899.78;;;13.71
61390;BMP280;47260;48.274;19.814;2022-11-03T12:16:46;99894.38;;;13.71
61390;BMP280;47260;48.274;19.814;2022-11-03T12:21:59;99892.03;;;13.51
61390;BMP280;47260;48.274;19.814;2022-11-03T12:24:26;99881.66;;;13.66
61390;BMP280;47260;48.274;19.814;2022-11-03T12:27:00;99877.25;;;13.63
61390;BMP280;47260;48.274;19.814;2022-11-03T12:29:27;99858.31;;;13.74
61390;BMP280;47260;48.274;19.814;2022-11-03T12:31:54;99857.59;;;13.68
61390;BMP280;47260;48.274;19.814;2022-11-03T12:34:20;99856.88;;;13.68
61390;BMP280;47260;48.274;19.814;2022-11-03T12:36:47;99851.41;;;13.79
61390;BMP280;47260;48.274;19.814;2022-11-03T12:39:15;99857.13;;;13.70
61390;BMP280;47260;48.274;19.814;2022-11-03T12:41:41;99840.22;;;13.64
61390;BMP280;47260;48.274;19.814;2022-11-03T12:44:08;99843.66;;;13.64
61390;BMP280;47260;48.274;19.814;2022-11-03T12:46:34;99831.28;;;13.80
61390;BMP280;47260;48.274;19.814;2022-11-03T12:49:01;99830.28;;;13.83
61390;BMP280;47260;48.274;19.814;2022-11-03T12:51:27;99827.50;;;13.94
61390;BMP280;47260;48.274;19.814;2022-11-03T12:53:54;99821.16;;;13.92
61390;BMP280;47260;48.274;19.814;2022-11-03T12:56:21;99829.06;;;14.14
61390;BMP280;47260;48.274;19.814;2022-11-03T12:58:48;99829.47;;;13.93
61390;BMP280;47260;48.274;19.814;2022-11-03T13:01:14;99821.06;;;14.03
61390;BMP280;47260;48.274;19.814;2022-11-03T13:03:41;99820.78;;;14.06
61390;BMP280;47260;48.274;19.814;2022-11-03T13:06:08;99829.47;;;13.93
61390;BMP280;47260;48.274;19.814;2022-11-03T13:08:36;99825.06;;;13.90
61390;BMP280;47260;48.274;19.814;2022-11-03T13:11:03;99817.03;;;13.85
61390;BMP280;47260;48.274;19.814;2022-11-03T13:13:51;99821.16;;;13.86
61390;BMP280;47260;48.274;19.814;2022-11-03T13:16:18;99817.13;;;13.98
61390;BMP280;47260;48.274;19.814;2022-11-03T13:18:44;99819.84;;;13.98
61390;BMP280;47260;48.274;19.814;2022-11-03T13:21:11;99811.06;;;13.92
61390;BMP280;47260;48.274;19.814;2022-11-03T13:23:37;99807.44;;;13.89
61390;BMP280;47260;48.274;19.814;2022-11-03T13:26:04;99803.94;;;13.95
61390;BMP280;47260;48.274;19.814;2022-11-03T13:28:30;99815.91;;;13.99
61390;BMP280;47260;48.274;19.814;2022-11-03T13:30:58;99803.66;;;13.98
61390;BMP280;47260;48.274;19.814;2022-11-03T13:33:25;99800.75;;;13.96
61390;BMP280;47260;48.274;19.814;2022-11-03T13:35:51;99813.06;;;13.86
61390;BMP280;47260;48.274;19.814;2022-11-03T13:38:18;99796.59;;;13.95
61390;BMP280;47260;48.274;19.814;2022-11-03T13:40:45;99802.75;;;13.90
61390;BMP280;47260;48.274;19.814;2022-11-03T13:43:12;99802.69;;;13.96
61390;BMP280;47260;48.274;19.814;2022-11-03T13:45:38;99798.91;;;13.80
61390;BMP280;47260;48.274;19.814;2022-11-03T13:48:06;99801.34;;;13.78
61390;BMP280;47260;48.274;19.814;2022-11-03T13:50:33;99799.59;;;13.80
61390;BMP280;47260;48.274;19.814;2022-11-03T13:52:59;99796.16;;;13.85
61390;BMP280;47260;48.274;19.814;2022-11-03T13:55:25;99796.44;;;13.82
61390;BMP280;47260;48.274;19.814;2022-11-03T13:57:52;99796.44;;;13.82
61390;BMP280;47260;48.274;19.814;2022-11-03T14:00:18;99788.88;;;13.75
61390;BMP280;47260;48.274;19.814;2022-11-03T14:02:45;99787.38;;;13.79
61390;BMP280;47260;48.274;19.814;2022-11-03T14:05:13;99793.22;;;13.83
61390;BMP280;47260;48.274;19.814;2022-11-03T14:07:40;99792.25;;;13.81
61390;BMP280;47260;48.274;19.814;2022-11-03T14:10:07;99778.09;;;13.75
61390;BMP280;47260;48.274;19.814;2022-11-03T14:12:33;99782.03;;;13.68
61390;BMP280;47260;48.274;19.814;2022-11-03T14:15:00;99785.69;;;13.71
61390;BMP280;47260;48.274;19.814;2022-11-03T14:17:28;99778.34;;;13.71
61390;BMP280;47260;48.274;19.814;2022-11-03T14:19:54;99779.59;;;13.70
61390;BMP280;47260;48.274;19.814;2022-11-03T14:22:22;99774.47;;;13.61